Time;durP1;ratioP1;P1;durP2;ratioP2;P2;SDS_P1;SDS_P2;PMS_P1;PMS_P2;Temp;Humidity;BMP_temperature;BMP_pressure;BME280_temperature;BME280_humidity;BME280_pressure;Samples;Min_cycle;Max_cycle;Signal;HPM_P1;HPM_P2
2023/07/05 00:00:57;;;;;;;0.00;0.00;;;15.20;81.60;;;;;;5029890;28;20120;-66
2023/07/05 00:03:22;;;;;;;0.00;0.00;;;15.20;82.60;;;;;;5030719;28;20045;-67
2023/07/05 00:05:48;;;;;;;0.00;0.00;;;15.20;82.30;;;;;;5030457;28;20042;-66
2023/07/05 00:08:14;;;;;;;0.00;0.00;;;15.20;82.40;;;;;;5025950;28;20464;-66
2023/07/05 00:10:39;;;;;;;0.00;0.00;;;15.20;82.10;;;;;;5030457;28;20041;-66
2023/07/05 00:13:05;;;;;;;0.00;0.00;;;15.30;81.70;;;;;;5012557;28;20409;-66
2023/07/05 00:15:31;;;;;;;0.15;0.15;;;15.30;82.20;;;;;;5030749;28;20041;-66
2023/07/05 00:17:58;;;;;;;0.00;0.00;;;15.30;83.40;;;;;;5029733;28;20099;-66
2023/07/05 00:20:24;;;;;;;0.00;0.00;;;15.30;83.00;;;;;;5030543;28;20128;-66
2023/07/05 00:22:51;;;;;;;0.00;0.00;;;15.30;82.80;;;;;;5030286;28;20128;-66
2023/07/05 00:25:16;;;;;;;0.00;0.00;;;15.30;83.20;;;;;;5030366;28;20116;-66
2023/07/05 00:27:42;;;;;;;0.00;0.00;;;15.30;82.30;;;;;;5029508;28;20701;-66
2023/07/05 00:30:08;;;;;;;0.00;0.00;;;15.30;82.80;;;;;;5012740;28;20136;-67
2023/07/05 00:32:34;;;;;;;0.00;0.00;;;15.30;82.40;;;;;;5030503;28;20140;-66
2023/07/05 00:34:59;;;;;;;0.00;0.00;;;15.30;82.20;;;;;;5030375;28;20128;-66
2023/07/05 00:37:25;;;;;;;0.00;0.00;;;15.20;82.40;;;;;;5029663;28;20073;-66
2023/07/05 00:39:51;;;;;;;0.00;0.00;;;15.30;82.80;;;;;;5029759;28;20033;-66
2023/07/05 00:42:16;;;;;;;0.00;0.00;;;15.30;83.40;;;;;;5029931;28;20045;-67
2023/07/05 00:44:54;;;;;;;0.00;0.00;;;15.30;83.10;;;;;;5029806;28;20053;-66
2023/07/05 00:47:28;;;;;;;0.00;0.00;;;15.30;83.90;;;;;;5029704;28;20056;-66
2023/07/05 00:50:00;;;;;;;0.10;0.10;;;15.30;83.50;;;;;;5029324;28;20052;-66
2023/07/05 00:52:26;;;;;;;0.00;0.00;;;15.30;84.20;;;;;;5028809;28;20037;-66
2023/07/05 00:54:55;;;;;;;0.00;0.00;;;15.30;84.90;;;;;;5029755;28;20088;-67
2023/07/05 00:57:27;;;;;;;0.00;0.00;;;15.20;84.80;;;;;;5011612;28;20130;-66
2023/07/05 00:59:57;;;;;;;0.10;0.10;;;15.20;84.30;;;;;;5026494;28;20046;-66
2023/07/05 01:02:23;;;;;;;0.20;0.20;;;15.20;84.20;;;;;;5029247;28;20053;-66
2023/07/05 01:04:49;;;;;;;0.00;0.00;;;15.20;83.90;;;;;;5028613;28;20061;-66
2023/07/05 01:07:15;;;;;;;0.00;0.00;;;15.20;83.90;;;;;;5029527;28;20053;-66
2023/07/05 01:09:41;;;;;;;1.65;0.50;;;15.20;84.00;;;;;;5029259;28;20099;-66
2023/07/05 01:12:26;;;;;;;0.00;0.00;;;15.20;84.20;;;;;;5029354;28;20041;-66
2023/07/05 01:14:54;;;;;;;0.00;0.00;;;15.20;84.00;;;;;;5029104;28;20048;-66
2023/07/05 01:17:36;;;;;;;3.17;1.73;;;15.20;83.70;;;;;;5029731;28;20045;-66
2023/07/05 01:20:34;;;;;;;21.30;1.17;;;15.20;85.20;;;;;;5028636;28;20042;-66
2023/07/05 01:23:36;;;;;;;0.00;0.00;;;15.10;84.20;;;;;;5029156;28;20053;-66
2023/07/05 01:26:21;;;;;;;0.00;0.00;;;15.10;84.20;;;;;;5011478;28;20152;-66
2023/07/05 01:29:34;;;;;;;0.00;0.00;;;15.10;84.30;;;;;;5027493;28;20414;-66
2023/07/05 01:32:20;;;;;;;0.00;0.00;;;15.10;84.70;;;;;;5028639;28;20088;-66
2023/07/05 01:35:16;;;;;;;0.00;0.00;;;15.10;85.30;;;;;;5011501;28;20042;-66
2023/07/05 01:37:44;;;;;;;0.00;0.00;;;15.10;84.80;;;;;;5029078;28;20045;-66
2023/07/05 01:40:18;;;;;;;0.10;0.10;;;15.00;85.20;;;;;;5028688;28;20504;-65
2023/07/05 01:42:46;;;;;;;0.00;0.00;;;15.00;84.70;;;;;;5028760;28;20052;-66
2023/07/05 01:45:12;;;;;;;0.10;0.10;;;15.00;84.50;;;;;;5028014;28;20077;-66
2023/07/05 01:47:46;;;;;;;0.22;0.15;;;15.00;84.40;;;;;;5028978;28;20587;-65
2023/07/05 01:50:20;;;;;;;0.10;0.10;;;15.00;84.30;;;;;;5028618;28;20405;-66
2023/07/05 01:52:57;;;;;;;0.00;0.00;;;15.00;85.20;;;;;;5028101;28;20525;-66
2023/07/05 01:55:31;;;;;;;0.00;0.00;;;14.90;84.80;;;;;;5028751;28;20041;-66
2023/07/05 01:58:03;;;;;;;0.55;0.55;;;15.00;85.10;;;;;;5028430;28;20096;-66
2023/07/05 02:00:30;;;;;;;0.00;0.00;;;15.00;84.60;;;;;;5028646;28;20048;-66
2023/07/05 02:03:05;;;;;;;0.00;0.00;;;15.00;85.60;;;;;;5028877;28;20133;-66
2023/07/05 02:05:32;;;;;;;0.00;0.00;;;14.90;85.80;;;;;;5028599;28;20052;-66
2023/07/05 02:07:59;;;;;;;0.00;0.00;;;14.90;85.90;;;;;;5028607;28;20441;-66
2023/07/05 02:10:25;;;;;;;0.00;0.00;;;15.00;85.90;;;;;;4995193;28;20166;-66
2023/07/05 02:12:52;;;;;;;0.00;0.00;;;14.90;85.50;;;;;;5029064;28;20405;-66
2023/07/05 02:15:19;;;;;;;0.00;0.00;;;14.90;85.60;;;;;;5028384;28;20049;-66
2023/07/05 02:17:45;;;;;;;0.00;0.00;;;15.00;85.40;;;;;;5010949;28;20540;-66
2023/07/05 02:20:11;;;;;;;0.00;0.00;;;15.00;85.70;;;;;;5030335;28;20056;-66
2023/07/05 02:22:36;;;;;;;0.00;0.00;;;15.00;85.70;;;;;;5032789;28;20050;-66
2023/07/05 02:25:02;;;;;;;0.00;0.00;;;15.00;86.30;;;;;;5032267;28;20512;-66
2023/07/05 02:27:28;;;;;;;0.00;0.00;;;15.00;86.70;;;;;;5032006;28;20076;-66
2023/07/05 02:29:55;;;;;;;0.20;0.20;;;15.00;86.60;;;;;;5032134;28;20072;-66
2023/07/05 02:32:21;;;;;;;0.00;0.00;;;15.00;87.10;;;;;;5032692;28;20524;-66
2023/07/05 02:34:47;;;;;;;0.00;0.00;;;15.00;87.50;;;;;;5031900;28;20055;-66
2023/07/05 02:37:14;;;;;;;0.00;0.00;;;14.90;87.60;;;;;;5032423;28;20033;-66
2023/07/05 02:39:40;;;;;;;0.00;0.00;;;14.90;88.00;;;;;;5031938;28;20041;-66
2023/07/05 02:42:06;;;;;;;0.00;0.00;;;14.90;88.10;;;;;;5031827;28;20409;-66
2023/07/05 02:44:32;;;;;;;0.30;0.30;;;14.90;87.50;;;;;;5031830;28;20092;-66
2023/07/05 02:46:58;;;;;;;0.00;0.00;;;14.90;87.90;;;;;;5031320;28;20080;-66
2023/07/05 02:49:23;;;;;;;0.00;0.00;;;14.80;87.30;;;;;;5032179;28;20397;-66
2023/07/05 02:51:49;;;;;;;0.00;0.00;;;14.90;87.50;;;;;;5032128;28;20128;-66
2023/07/05 02:54:15;;;;;;;0.50;0.47;;;14.80;88.20;;;;;;5031673;28;20041;-66
2023/07/05 02:56:40;;;;;;;0.00;0.00;;;14.80;87.90;;;;;;5031794;28;20045;-66
2023/07/05 02:59:06;;;;;;;3.20;0.70;;;14.80;88.00;;;;;;5031597;28;20040;-66
2023/07/05 03:01:31;;;;;;;0.17;0.13;;;14.80;87.40;;;;;;5032008;28;20045;-66
2023/07/05 03:03:57;;;;;;;0.00;0.00;;;14.80;87.00;;;;;;5032012;28;20482;-67
2023/07/05 03:06:22;;;;;;;0.05;0.05;;;14.80;87.30;;;;;;5031072;28;20045;-66
2023/07/05 03:08:48;;;;;;;0.10;0.10;;;14.80;87.90;;;;;;5013864;28;20052;-65
2023/07/05 03:11:14;;;;;;;0.20;0.20;;;14.90;88.70;;;;;;5030795;28;20113;-66
2023/07/05 03:13:39;;;;;;;0.00;0.00;;;14.80;89.00;;;;;;5012204;28;20518;-66
2023/07/05 03:16:06;;;;;;;0.05;0.05;;;14.80;89.20;;;;;;5027754;28;20529;-65
2023/07/05 03:18:32;;;;;;;0.22;0.22;;;14.80;89.40;;;;;;5031716;28;20080;-65
2023/07/05 03:20:58;;;;;;;0.00;0.00;;;14.80;89.40;;;;;;5031473;28;20033;-66
2023/07/05 03:23:23;;;;;;;0.00;0.00;;;14.90;89.70;;;;;;5030478;28;20593;-66
2023/07/05 03:25:57;;;;;;;0.00;0.00;;;14.80;89.00;;;;;;5031144;28;20076;-66
2023/07/05 03:28:29;;;;;;;0.10;0.10;;;14.90;89.80;;;;;;5031343;28;20037;-66
2023/07/05 03:31:10;;;;;;;0.20;0.20;;;14.90;90.40;;;;;;5031333;28;20042;-66
2023/07/05 03:33:36;;;;;;;0.00;0.00;;;15.00;90.60;;;;;;5031371;28;20088;-66
2023/07/05 03:36:07;;;;;;;0.10;0.10;;;14.90;90.60;;;;;;5030299;28;20073;-66
2023/07/05 03:38:34;;;;;;;0.15;0.15;;;14.90;90.90;;;;;;5030857;28;20099;-66
2023/07/05 03:41:05;;;;;;;0.13;0.13;;;14.90;90.50;;;;;;5031303;28;20072;-66
2023/07/05 03:43:35;;;;;;;0.00;0.00;;;14.90;90.20;;;;;;5030751;28;20117;-66
2023/07/05 03:46:03;;;;;;;0.32;0.32;;;14.90;89.90;;;;;;5030794;28;20864;-66
2023/07/05 03:48:34;;;;;;;0.00;0.00;;;15.00;89.80;;;;;;5030755;28;20045;-66
2023/07/05 03:51:00;;;;;;;0.00;0.00;;;15.00;89.50;;;;;;5031199;28;20053;-66
2023/07/05 03:53:27;;;;;;;0.03;0.03;;;15.10;90.10;;;;;;5031283;28;20053;-66
2023/07/05 03:55:52;;;;;;;0.00;0.00;;;15.10;90.50;;;;;;5030629;28;20096;-66
2023/07/05 03:58:18;;;;;;;0.10;0.10;;;15.10;90.10;;;;;;5030369;28;20473;-67
2023/07/05 04:00:45;;;;;;;0.00;0.00;;;15.10;89.80;;;;;;5030789;28;20080;-67
2023/07/05 04:03:11;;;;;;;0.00;0.00;;;15.20;90.50;;;;;;5030340;28;20048;-66
2023/07/05 04:05:37;;;;;;;0.10;0.10;;;15.20;90.30;;;;;;5030485;28;20053;-67
2023/07/05 04:08:03;;;;;;;0.00;0.00;;;15.20;90.60;;;;;;5012645;28;20046;-67
2023/07/05 04:10:28;;;;;;;0.00;0.00;;;15.20;90.60;;;;;;5030328;28;20482;-66
2023/07/05 04:12:54;;;;;;;0.28;0.28;;;15.20;90.70;;;;;;5030292;28;20041;-67
2023/07/05 04:15:20;;;;;;;0.00;0.00;;;15.20;90.40;;;;;;5029911;28;20050;-66
2023/07/05 04:17:45;;;;;;;0.30;0.30;;;15.30;90.60;;;;;;5030278;28;20077;-66
2023/07/05 04:20:12;;;;;;;0.30;0.30;;;15.30;90.20;;;;;;5030266;28;20692;-66
2023/07/05 04:22:40;;;;;;;0.00;0.00;;;15.30;90.40;;;;;;5030362;28;20041;-67
2023/07/05 04:25:09;;;;;;;0.00;0.00;;;15.30;90.40;;;;;;5030188;28;20333;-67
2023/07/05 04:27:35;;;;;;;0.20;0.20;;;15.30;90.10;;;;;;4996472;28;20045;-67
2023/07/05 04:30:03;;;;;;;0.00;0.00;;;15.40;89.90;;;;;;5029861;28;20076;-67
2023/07/05 04:32:29;;;;;;;0.00;0.00;;;15.40;89.80;;;;;;5029943;28;20045;-67
2023/07/05 04:34:55;;;;;;;0.00;0.00;;;15.40;89.40;;;;;;5029990;28;20095;-67
2023/07/05 04:37:20;;;;;;;0.00;0.00;;;15.30;88.70;;;;;;5029932;28;20034;-66
2023/07/05 04:39:46;;;;;;;0.10;0.10;;;15.30;88.30;;;;;;5029963;28;20391;-66
2023/07/05 04:42:12;;;;;;;0.30;0.30;;;15.30;88.10;;;;;;5028409;28;20038;-67
2023/07/05 04:44:37;;;;;;;0.00;0.00;;;15.20;88.20;;;;;;5029455;28;20053;-67
2023/07/05 04:47:03;;;;;;;0.00;0.00;;;15.20;88.00;;;;;;5012517;28;20037;-67
2023/07/05 04:49:29;;;;;;;0.00;0.00;;;15.20;87.90;;;;;;5011955;28;20517;-67
2023/07/05 04:51:54;;;;;;;0.00;0.00;;;15.10;87.60;;;;;;5029863;28;20071;-67
2023/07/05 04:54:20;;;;;;;0.00;0.00;;;15.10;87.30;;;;;;5029290;28;20095;-66
2023/07/05 04:56:45;;;;;;;0.00;0.00;;;15.10;87.10;;;;;;5029070;28;20045;-66
2023/07/05 04:59:11;;;;;;;0.00;0.00;;;15.10;86.90;;;;;;5028953;28;20612;-66
2023/07/05 05:01:37;;;;;;;0.00;0.00;;;15.10;86.70;;;;;;5028494;28;20050;-66
2023/07/05 05:04:03;;;;;;;0.00;0.00;;;15.10;86.60;;;;;;5029502;28;20049;-67
2023/07/05 05:06:29;;;;;;;0.10;0.10;;;15.10;86.70;;;;;;5029516;28;20045;-67
2023/07/05 05:08:55;;;;;;;0.10;0.10;;;15.10;86.90;;;;;;5029086;28;20049;-68
2023/07/05 05:11:21;;;;;;;0.00;0.00;;;15.10;86.80;;;;;;5010765;28;20037;-67
2023/07/05 05:13:49;;;;;;;0.30;0.30;;;15.10;86.60;;;;;;5029275;28;20045;-67
2023/07/05 05:16:14;;;;;;;0.00;0.00;;;15.10;86.70;;;;;;5011835;28;20052;-67
2023/07/05 05:18:41;;;;;;;0.20;0.20;;;15.00;86.50;;;;;;5011354;28;20401;-67
2023/07/05 05:21:07;;;;;;;0.00;0.00;;;15.10;85.90;;;;;;5027888;28;20053;-67
2023/07/05 05:23:32;;;;;;;0.00;0.00;;;15.10;86.10;;;;;;5029546;28;20506;-67
2023/07/05 05:25:58;;;;;;;0.15;0.15;;;15.00;86.30;;;;;;5028822;28;20045;-67
2023/07/05 05:28:24;;;;;;;0.00;0.00;;;14.90;86.40;;;;;;5028716;28;20037;-67
2023/07/05 05:30:49;;;;;;;0.00;0.00;;;14.90;86.50;;;;;;5028387;28;20124;-67
2023/07/05 05:33:17;;;;;;;0.10;0.10;;;14.90;86.30;;;;;;5028625;28;20136;-66
2023/07/05 05:35:49;;;;;;;0.00;0.00;;;14.80;86.00;;;;;;5028119;28;20413;-68
2023/07/05 05:38:19;;;;;;;0.20;0.20;;;14.80;86.00;;;;;;5027789;28;20037;-66
2023/07/05 05:40:46;;;;;;;0.00;0.00;;;14.80;86.00;;;;;;5029684;28;20065;-67
2023/07/05 05:43:11;;;;;;;3.30;0.57;;;14.80;86.00;;;;;;5027729;28;20049;-67
2023/07/05 05:45:37;;;;;;;0.00;0.00;;;14.90;85.90;;;;;;5027008;28;20057;-67
2023/07/05 05:48:03;;;;;;;0.10;0.10;;;14.90;85.80;;;;;;5028202;28;20046;-67
2023/07/05 05:50:28;;;;;;;0.00;0.00;;;14.90;85.70;;;;;;5027813;28;20050;-67
2023/07/05 05:52:54;;;;;;;0.00;0.00;;;14.80;85.50;;;;;;5027781;28;20042;-67
2023/07/05 05:55:20;;;;;;;0.00;0.00;;;14.80;85.50;;;;;;5032250;28;20190;-67
2023/07/05 05:57:45;;;;;;;0.10;0.10;;;14.90;85.50;;;;;;5031712;28;20520;-67
2023/07/05 06:00:12;;;;;;;0.08;0.08;;;14.90;85.40;;;;;;5032531;28;20398;-68
2023/07/05 06:02:38;;;;;;;0.10;0.10;;;14.90;85.30;;;;;;5033003;28;20050;-67
2023/07/05 06:05:04;;;;;;;0.00;0.00;;;14.90;85.30;;;;;;5033687;28;20058;-67
2023/07/05 06:07:30;;;;;;;0.13;0.13;;;14.90;85.10;;;;;;5032940;28;20073;-67
2023/07/05 06:09:56;;;;;;;1.25;1.02;;;14.90;85.10;;;;;;5015097;28;20143;-67
2023/07/05 06:12:21;;;;;;;0.00;0.00;;;14.90;84.90;;;;;;5033810;28;20053;-67
2023/07/05 06:14:47;;;;;;;0.10;0.10;;;14.90;84.80;;;;;;5033014;28;20065;-66
2023/07/05 06:17:13;;;;;;;0.00;0.00;;;14.90;84.60;;;;;;5024210;28;20033;-67
2023/07/05 06:19:39;;;;;;;0.75;0.75;;;15.00;84.80;;;;;;5032507;28;20083;-67
2023/07/05 06:22:05;;;;;;;0.00;0.00;;;15.00;84.70;;;;;;5032760;28;20103;-67
2023/07/05 06:24:33;;;;;;;0.10;0.10;;;15.10;84.70;;;;;;5033513;28;20056;-67
2023/07/05 06:27:00;;;;;;;0.00;0.00;;;15.10;84.60;;;;;;5033516;28;20068;-68
2023/07/05 06:29:26;;;;;;;0.00;0.00;;;15.10;84.70;;;;;;5033673;28;20041;-67
2023/07/05 06:31:51;;;;;;;0.00;0.00;;;15.20;84.60;;;;;;4999547;28;20056;-68
2023/07/05 06:34:17;;;;;;;0.00;0.00;;;15.20;84.60;;;;;;5032465;28;20132;-64
2023/07/05 06:36:43;;;;;;;0.00;0.00;;;15.30;84.60;;;;;;5031929;28;20048;-65
2023/07/05 06:39:08;;;;;;;0.00;0.00;;;15.30;84.10;;;;;;5032190;28;20029;-65
2023/07/05 06:41:34;;;;;;;0.00;0.00;;;15.40;83.80;;;;;;5026603;28;20053;-64
2023/07/05 06:44:00;;;;;;;0.00;0.00;;;15.50;83.70;;;;;;5028749;28;20052;-64
2023/07/05 06:46:25;;;;;;;0.00;0.00;;;15.50;83.40;;;;;;5038568;28;20072;-65
2023/07/05 06:48:51;;;;;;;0.10;0.10;;;15.50;83.00;;;;;;5039369;28;20045;-64
2023/07/05 06:51:17;;;;;;;0.20;0.20;;;15.50;83.20;;;;;;5040570;28;20141;-64
2023/07/05 06:53:43;;;;;;;0.00;0.00;;;15.50;83.00;;;;;;5040029;28;20577;-66
2023/07/05 06:56:09;;;;;;;0.57;0.57;;;15.60;83.00;;;;;;5039989;28;20124;-64
2023/07/05 06:58:36;;;;;;;0.00;0.00;;;15.50;81.90;;;;;;5038304;28;20521;-65
2023/07/05 07:01:02;;;;;;;0.00;0.00;;;15.60;82.10;;;;;;5039511;28;20042;-65
2023/07/05 07:03:28;;;;;;;0.05;0.05;;;15.60;81.70;;;;;;5039850;28;20042;-65
2023/07/05 07:05:56;;;;;;;0.00;0.00;;;15.50;81.20;;;;;;5032769;28;20064;-65
2023/07/05 07:08:23;;;;;;;0.00;0.00;;;15.50;81.60;;;;;;5038946;28;20557;-65
2023/07/05 07:10:49;;;;;;;0.00;0.00;;;15.40;81.30;;;;;;5018574;28;20111;-64
2023/07/05 07:13:15;;;;;;;0.03;0.03;;;15.30;81.20;;;;;;5039831;28;20053;-65
2023/07/05 07:15:41;;;;;;;0.00;0.00;;;15.20;81.50;;;;;;5038896;28;20034;-66
2023/07/05 07:18:07;;;;;;;0.00;0.00;;;15.10;82.20;;;;;;5040818;28;20123;-65
2023/07/05 07:20:33;;;;;;;0.00;0.00;;;15.00;83.10;;;;;;5039679;28;20120;-65
2023/07/05 07:22:59;;;;;;;0.00;0.00;;;14.70;83.60;;;;;;5039069;28;20470;-66
2023/07/05 07:25:26;;;;;;;0.00;0.00;;;14.50;83.70;;;;;;5040610;28;20448;-65
2023/07/05 07:27:51;;;;;;;0.00;0.00;;;14.20;83.50;;;;;;5040145;28;20049;-64
2023/07/05 07:30:17;;;;;;;0.10;0.10;;;14.00;82.90;;;;;;5039806;28;20516;-65
2023/07/05 07:32:45;;;;;;;0.00;0.00;;;13.70;83.20;;;;;;5038742;28;20041;-65
2023/07/05 07:35:13;;;;;;;0.00;0.00;;;13.50;83.50;;;;;;5038073;28;20102;-65
2023/07/05 07:37:38;;;;;;;0.00;0.00;;;13.40;83.90;;;;;;5039101;28;20068;-65
2023/07/05 07:40:06;;;;;;;0.00;0.00;;;13.20;84.10;;;;;;5037460;28;20037;-65
2023/07/05 07:42:32;;;;;;;1.25;1.15;;;13.10;84.50;;;;;;5038429;28;20041;-64
2023/07/05 07:44:57;;;;;;;0.00;0.00;;;13.10;84.50;;;;;;5019682;28;20049;-64
2023/07/05 07:47:23;;;;;;;0.00;0.00;;;12.90;85.70;;;;;;5038821;28;20047;-64
2023/07/05 07:49:49;;;;;;;0.00;0.00;;;12.80;85.60;;;;;;5038740;28;20052;-65
2023/07/05 07:52:17;;;;;;;0.25;0.25;;;12.80;85.90;;;;;;5038933;28;20041;-65
2023/07/05 07:54:43;;;;;;;0.52;0.43;;;12.80;86.60;;;;;;5039050;28;20444;-65
2023/07/05 07:57:08;;;;;;;0.00;0.00;;;12.60;87.30;;;;;;5038715;28;20046;-64
2023/07/05 07:59:41;;;;;;;0.00;0.00;;;12.60;87.90;;;;;;5034444;28;20037;-65
2023/07/05 08:02:11;;;;;;;0.00;0.00;;;12.60;88.20;;;;;;5037636;28;20043;-64
2023/07/05 08:04:44;;;;;;;0.00;0.00;;;12.50;88.60;;;;;;5039485;28;20044;-65
2023/07/05 08:07:10;;;;;;;0.00;0.00;;;12.50;89.00;;;;;;5038187;28;20118;-65
2023/07/05 08:09:36;;;;;;;0.00;0.00;;;12.50;88.20;;;;;;5037274;28;20482;-65
2023/07/05 08:12:02;;;;;;;0.00;0.00;;;12.50;89.10;;;;;;5037103;28;20111;-65
2023/07/05 08:14:28;;;;;;;0.00;0.00;;;12.50;89.40;;;;;;5036824;28;20148;-65
2023/07/05 08:16:54;;;;;;;0.00;0.00;;;12.50;89.70;;;;;;5037367;28;20048;-65
2023/07/05 08:19:20;;;;;;;0.00;0.00;;;12.60;90.10;;;;;;5037199;28;20037;-65
2023/07/05 08:21:47;;;;;;;0.00;0.00;;;12.60;90.00;;;;;;5038440;28;20069;-64
2023/07/05 08:24:13;;;;;;;0.00;0.00;;;12.60;90.70;;;;;;5038105;28;20056;-65
2023/07/05 08:26:39;;;;;;;0.00;0.00;;;12.60;91.10;;;;;;5037886;28;20497;-66
2023/07/05 08:29:05;;;;;;;6.50;2.55;;;12.80;91.90;;;;;;5036976;28;20160;-66
2023/07/05 08:31:30;;;;;;;0.00;0.00;;;12.90;92.00;;;;;;5036265;28;20056;-66
2023/07/05 08:33:56;;;;;;;0.00;0.00;;;13.00;91.30;;;;;;5037899;28;20030;-64
2023/07/05 08:36:37;;;;;;;0.00;0.00;;;13.20;91.20;;;;;;5038519;28;20041;-65
2023/07/05 08:39:05;;;;;;;0.00;0.00;;;13.40;90.90;;;;;;5037174;28;20049;-65
2023/07/05 08:41:36;;;;;;;0.00;0.00;;;13.60;91.00;;;;;;5036532;28;20048;-65
2023/07/05 08:44:20;;;;;;;0.00;0.00;;;13.60;91.40;;;;;;5035921;28;20064;-65
2023/07/05 08:46:53;;;;;;;0.08;0.08;;;13.90;91.50;;;;;;5036240;28;20312;-65
2023/07/05 08:49:39;;;;;;;0.05;0.05;;;14.10;91.00;;;;;;5036203;28;20045;-65
2023/07/05 08:52:15;;;;;;;0.20;0.20;;;14.50;92.50;;;;;;5032563;28;20131;-66
2023/07/05 08:54:42;;;;;;;0.20;0.20;;;15.00;93.60;;;;;;5035422;28;20052;-64
2023/07/05 08:57:23;;;;;;;0.52;0.52;;;15.20;92.90;;;;;;5036242;28;20099;-65
2023/07/05 08:59:51;;;;;;;0.00;0.00;;;15.40;92.30;;;;;;5037372;28;20068;-64
2023/07/05 09:02:22;;;;;;;0.00;0.00;;;15.50;91.80;;;;;;5036933;28;20045;-65
2023/07/05 09:04:50;;;;;;;0.00;0.00;;;15.60;91.20;;;;;;5035816;28;20045;-64
2023/07/05 09:07:18;;;;;;;0.00;0.00;;;15.60;90.60;;;;;;5036256;28;20397;-65
2023/07/05 09:09:53;;;;;;;0.20;0.20;;;15.30;89.10;;;;;;5036475;28;20033;-65
2023/07/05 09:12:34;;;;;;;0.00;0.00;;;15.20;88.90;;;;;;5037810;28;20096;-65
2023/07/05 09:15:22;;;;;;;0.00;0.00;;;15.00;88.10;;;;;;5036443;28;20477;-64
2023/07/05 09:17:53;;;;;;;0.00;0.00;;;14.90;87.90;;;;;;5035604;28;20134;-65
2023/07/05 09:20:42;;;;;;;0.00;0.00;;;14.60;88.30;;;;;;5035044;28;20120;-64
2023/07/05 09:23:16;;;;;;;0.03;0.03;;;14.30;88.40;;;;;;5035543;28;20665;-65
2023/07/05 09:25:45;;;;;;;0.00;0.00;;;14.40;88.60;;;;;;5036821;28;20528;-64
2023/07/05 09:28:22;;;;;;;0.00;0.00;;;14.50;88.30;;;;;;5036062;28;20425;-65
2023/07/05 09:30:48;;;;;;;0.00;0.00;;;14.40;88.50;;;;;;5036051;28;20041;-63
2023/07/05 09:33:27;;;;;;;0.00;0.00;;;14.40;87.30;;;;;;5034444;28;20036;-63
2023/07/05 09:35:54;;;;;;;0.10;0.10;;;14.40;87.50;;;;;;5018359;28;20128;-63
2023/07/05 09:38:30;;;;;;;0.00;0.00;;;14.50;87.10;;;;;;5037956;28;20531;-63
2023/07/05 09:41:35;;;;;;;0.00;0.00;;;14.40;85.70;;;;;;5035686;28;20075;-63
2023/07/05 09:44:01;;;;;;;0.00;0.00;;;14.20;85.40;;;;;;5032109;28;20183;-63
2023/07/05 09:46:31;;;;;;;0.00;0.00;;;14.10;85.70;;;;;;5033676;28;20782;-64
2023/07/05 09:48:57;;;;;;;1.33;0.75;;;14.10;86.30;;;;;;5034333;28;20048;-64
2023/07/05 09:51:23;;;;;;;0.00;0.00;;;14.20;85.30;;;;;;5035447;28;20241;-63
2023/07/05 09:53:56;;;;;;;0.00;0.00;;;14.30;83.70;;;;;;5018931;28;20057;-63
2023/07/05 09:56:29;;;;;;;4.38;1.85;;;14.50;83.60;;;;;;5030283;28;20114;-63
2023/07/05 09:59:12;;;;;;;0.00;0.00;;;14.60;84.40;;;;;;5031628;28;20164;-64
2023/07/05 10:01:42;;;;;;;0.00;0.00;;;14.60;82.70;;;;;;5032722;28;20060;-65
2023/07/05 10:04:08;;;;;;;0.00;0.00;;;14.60;82.10;;;;;;4996938;28;20060;-63
2023/07/05 10:06:38;;;;;;;0.00;0.00;;;14.80;82.80;;;;;;5031377;28;20401;-63
2023/07/05 10:09:20;;;;;;;0.75;0.43;;;15.00;81.70;;;;;;5029992;28;20042;-64
2023/07/05 10:11:48;;;;;;;0.00;0.00;;;15.20;79.80;;;;;;5030742;28;20485;-65
2023/07/05 10:14:20;;;;;;;0.00;0.00;;;15.40;79.80;;;;;;5032372;28;20037;-65
2023/07/05 10:16:50;;;;;;;0.00;0.00;;;15.50;78.70;;;;;;5028689;28;20049;-64
2023/07/05 10:19:28;;;;;;;0.00;0.00;;;15.60;78.70;;;;;;5031551;28;20083;-64
2023/07/05 10:22:15;;;;;;;0.00;0.00;;;15.60;77.70;;;;;;5030156;28;20053;-64
2023/07/05 10:24:50;;;;;;;0.10;0.10;;;15.80;78.20;;;;;;5030181;28;20080;-65
2023/07/05 10:27:19;;;;;;;0.00;0.00;;;16.00;78.90;;;;;;5013807;28;20524;-64
2023/07/05 10:29:47;;;;;;;0.00;0.00;;;16.10;77.50;;;;;;5029251;28;20575;-64
2023/07/05 10:32:18;;;;;;;0.00;0.00;;;16.20;76.70;;;;;;5031651;28;20059;-64
2023/07/05 10:34:47;;;;;;;5.15;2.00;;;16.20;76.40;;;;;;5028316;28;21194;-64
2023/07/05 10:37:36;;;;;;;0.00;0.00;;;16.40;76.40;;;;;;5027374;28;20072;-64
2023/07/05 10:40:04;;;;;;;0.00;0.00;;;16.50;77.40;;;;;;5031740;28;20124;-64
2023/07/05 10:42:30;;;;;;;5.38;1.05;;;16.60;76.80;;;;;;5039513;28;20855;-64
2023/07/05 10:44:57;;;;;;;0.55;0.55;;;16.80;76.30;;;;;;5040011;28;20052;-64
2023/07/05 10:47:23;;;;;;;0.00;0.00;;;16.80;76.10;;;;;;5040731;28;20402;-64
2023/07/05 10:49:51;;;;;;;2.83;2.20;;;16.90;75.30;;;;;;5037500;28;20073;-64
2023/07/05 10:52:19;;;;;;;0.00;0.00;;;17.00;74.00;;;;;;5037919;28;20048;-64
2023/07/05 10:55:05;;;;;;;0.00;0.00;;;17.00;74.00;;;;;;5036932;28;20564;-65
2023/07/05 10:57:41;;;;;;;0.00;0.00;;;17.10;73.10;;;;;;5038149;28;20053;-64
2023/07/05 11:00:28;;;;;;;0.00;0.00;;;17.30;71.60;;;;;;5038541;28;20040;-64
2023/07/05 11:03:17;;;;;;;0.00;0.00;;;17.30;70.30;;;;;;5035511;28;20760;-64
2023/07/05 11:05:51;;;;;;;0.00;0.00;;;17.20;71.50;;;;;;5021663;28;20050;-64
2023/07/05 11:08:25;;;;;;;0.00;0.00;;;17.40;71.20;;;;;;5038048;28;20116;-64
2023/07/05 11:10:52;;;;;;;0.00;0.00;;;17.60;72.90;;;;;;5037465;28;20048;-64
2023/07/05 11:13:18;;;;;;;0.05;0.05;;;17.80;70.10;;;;;;5038028;28;20049;-64
2023/07/05 11:15:45;;;;;;;0.00;0.00;;;17.90;70.00;;;;;;5039933;28;20437;-64
2023/07/05 11:18:20;;;;;;;0.00;0.00;;;18.10;71.70;;;;;;5036871;28;20409;-64
2023/07/05 11:20:51;;;;;;;0.00;0.00;;;18.30;71.00;;;;;;5036840;28;20054;-64
2023/07/05 11:23:43;;;;;;;0.20;0.20;;;18.50;70.30;;;;;;5037486;28;20095;-65
2023/07/05 11:26:32;;;;;;;0.08;0.08;;;18.50;70.50;;;;;;4999873;28;20051;-65
2023/07/05 11:28:57;;;;;;;0.55;0.55;;;18.10;73.30;;;;;;5039371;28;20083;-65
2023/07/05 11:31:29;;;;;;;0.00;0.00;;;17.30;78.70;;;;;;5029999;28;20050;-63
2023/07/05 11:34:13;;;;;;;;;;;16.40;82.20;;;;;;5031012;28;20041;-64
2023/07/05 11:36:39;;;;;;;0.00;0.00;;;15.90;84.20;;;;;;5006171;28;20572;-66
2023/07/05 11:39:06;;;;;;;0.00;0.00;;;15.60;85.00;;;;;;5030418;28;20125;-65
2023/07/05 11:41:36;;;;;;;0.75;0.75;;;15.30;84.70;;;;;;5029380;28;20120;-66
2023/07/05 11:44:21;;;;;;;0.00;0.00;;;15.10;85.60;;;;;;5029882;28;20057;-67
2023/07/05 11:46:48;;;;;;;0.00;0.00;;;14.70;86.70;;;;;;5013221;28;20050;-66
2023/07/05 11:49:15;;;;;;;0.22;0.22;;;14.50;87.40;;;;;;5030971;28;20124;-67
2023/07/05 11:51:41;;;;;;;0.00;0.00;;;14.40;88.00;;;;;;5030864;28;20049;-66
2023/07/05 11:54:08;;;;;;;0.32;0.32;;;14.20;89.10;;;;;;5031024;28;20079;-67
2023/07/05 11:56:38;;;;;;;0.00;0.00;;;14.00;89.30;;;;;;5030835;28;20517;-66
2023/07/05 11:59:07;;;;;;;0.00;0.00;;;14.00;89.10;;;;;;5030920;28;20045;-67
2023/07/05 12:01:37;;;;;;;0.00;0.00;;;13.80;89.50;;;;;;5027571;28;20619;-65
2023/07/05 12:04:09;;;;;;;0.25;0.25;;;13.70;89.00;;;;;;5026460;28;20441;-64
2023/07/05 12:06:40;;;;;;;0.15;0.15;;;13.60;89.40;;;;;;5029625;28;20041;-63
2023/07/05 12:09:13;;;;;;;0.15;0.15;;;13.60;89.40;;;;;;5029851;28;20049;-64
2023/07/05 12:11:40;;;;;;;0.20;0.20;;;13.60;89.90;;;;;;5030111;28;20051;-64
2023/07/05 12:14:11;;;;;;;0.00;0.00;;;13.60;90.10;;;;;;5044220;28;20045;-63
2023/07/05 12:16:37;;;;;;;0.00;0.00;;;13.60;90.30;;;;;;5050094;28;20063;-64
2023/07/05 12:19:06;;;;;;;0.30;0.30;;;13.60;90.10;;;;;;5049811;28;20068;-63
2023/07/05 12:21:33;;;;;;;0.00;0.00;;;13.70;90.20;;;;;;5038890;28;20060;-63
2023/07/05 12:24:02;;;;;;;0.73;0.45;;;13.80;89.90;;;;;;5028673;28;20658;-63
2023/07/05 12:26:31;;;;;;;0.05;0.05;;;13.80;89.90;;;;;;5029385;28;20116;-63
2023/07/05 12:29:13;;;;;;;0.13;0.13;;;13.90;89.90;;;;;;5029653;28;20135;-63
2023/07/05 12:31:38;;;;;;;0.32;0.32;;;13.80;90.20;;;;;;5029211;28;20411;-63
2023/07/05 12:34:04;;;;;;;0.00;0.00;;;13.80;90.10;;;;;;5029520;28;20044;-63
2023/07/05 12:36:39;;;;;;;0.70;0.70;;;13.80;89.90;;;;;;5029226;28;20045;-63
2023/07/05 12:39:08;;;;;;;0.00;0.00;;;13.80;89.60;;;;;;5011809;28;20049;-63
2023/07/05 12:41:34;;;;;;;0.00;0.00;;;13.70;89.30;;;;;;5029021;28;20533;-64
2023/07/05 12:44:05;;;;;;;0.00;0.00;;;13.70;89.20;;;;;;5029228;28;20128;-64
2023/07/05 12:46:34;;;;;;;0.00;0.00;;;13.80;88.90;;;;;;5029477;28;20057;-64
2023/07/05 12:49:19;;;;;;;0.00;0.00;;;13.70;89.10;;;;;;5029175;28;20080;-65
2023/07/05 12:51:49;;;;;;;0.30;0.30;;;13.70;88.70;;;;;;5028524;28;20038;-65
2023/07/05 12:54:16;;;;;;;0.00;0.00;;;13.70;88.60;;;;;;5028549;28;20050;-64
2023/07/05 12:56:45;;;;;;;0.00;0.00;;;13.70;88.40;;;;;;5029181;28;20056;-64
2023/07/05 12:59:32;;;;;;;0.00;0.00;;;13.60;88.30;;;;;;5029449;28;20060;-65